Portada
METAR-TAF:

METAR-TAF

Aeropuertos :

Aeropuerto Internacional Daniel Oduber

Liberia, Costa Rica

latitud: 10-37N, longitud: 085-26W, altitud: 80 m

Observación

El informe se hizo hace 18 minutos, a las 23:00 UTC
Viento 6 kt del este
Temperatura 27°C
Humedad 74%
Presión 1009 hPa
Visibilidad 10 km o más
Escasas nubes a una altura de 4500 ft
Nubes dispersas a una altura de 8000 ft

METAR: MRLB 302300Z 08006KT 9999 FEW045 SCT080 27/22 A2980

Hora: 17:18 (23:18 UTC)

Pronóstico

El informe se hizo hace 6 horas y 18 minutos, a las 17:00 UTC
Pronóstico válido del 30 a las 18 UTC al 01 a las 18 UTC
Viento 7 kt del este-sureste
Visibilidad 10 km o más
Escasas nubes a una altura de 3500 ft
Temporalmente
del 30 a las 18 UTC al 30 a las 24 UTC
Viento 5 kt del oeste

TAF: MRLB 301700Z 3018/0118 12007KT 9999 FEW035 TX31/3019Z TN21/0112Z TEMPO 3018/3024 27005KT

Observaciones y pronósticos meteorológicos de más de 4000 aeropuertos (mensajes METAR y TAF).

Los puntos amarillos y rojos representan las estaciones disponibles.

Ponga el ratón en el punto deseado para ver el nombre de la estación.

Haga clic para ver las observaciones y los pronósticos meteorológicos.

Para cambiar el mapa : haga clic en los botones verdes con una cruz de color negro para hacer un zoom, en el botón verde con un guión para alejar o en las flechas verdes para mapas adyacentes.


METAR-TAF: